sensor_id;sensor_type;location;lat;lon;timestamp;P1;durP1;ratioP1;P2;durP2;ratioP2
71204;SDS011;58935;54.498;18.544;2023-06-10T00:01:49;15.10;;;2.80;;
71204;SDS011;58935;54.498;18.544;2023-06-10T00:04:17;9.30;;;2.60;;
71204;SDS011;58935;54.498;18.544;2023-06-10T00:06:44;12.60;;;3.00;;
71204;SDS011;58935;54.498;18.544;2023-06-10T00:09:15;10.80;;;2.90;;
71204;SDS011;58935;54.498;18.544;2023-06-10T00:11:41;10.90;;;2.60;;
71204;SDS011;58935;54.498;18.544;2023-06-10T00:14:09;6.50;;;2.70;;
71204;SDS011;58935;54.498;18.544;2023-06-10T00:16:35;13.60;;;2.50;;
71204;SDS011;58935;54.498;18.544;2023-06-10T00:19:02;10.90;;;3.10;;
71204;SDS011;58935;54.498;18.544;2023-06-10T00:21:32;5.30;;;2.50;;
71204;SDS011;58935;54.498;18.544;2023-06-10T00:24:04;12.00;;;2.60;;
71204;SDS011;58935;54.498;18.544;2023-06-10T00:26:31;9.30;;;2.60;;
71204;SDS011;58935;54.498;18.544;2023-06-10T00:28:57;15.40;;;2.90;;
71204;SDS011;58935;54.498;18.544;2023-06-10T00:31:23;7.50;;;2.40;;
71204;SDS011;58935;54.498;18.544;2023-06-10T00:33:48;13.50;;;2.90;;
71204;SDS011;58935;54.498;18.544;2023-06-10T00:36:14;16.60;;;2.90;;
71204;SDS011;58935;54.498;18.544;2023-06-10T00:38:39;8.60;;;2.10;;
71204;SDS011;58935;54.498;18.544;2023-06-10T00:41:06;9.40;;;2.30;;
71204;SDS011;58935;54.498;18.544;2023-06-10T00:43:33;7.90;;;2.90;;
71204;SDS011;58935;54.498;18.544;2023-06-10T00:45:59;6.30;;;2.40;;
71204;SDS011;58935;54.498;18.544;2023-06-10T00:48:25;9.20;;;2.70;;
71204;SDS011;58935;54.498;18.544;2023-06-10T00:50:51;9.10;;;2.50;;
71204;SDS011;58935;54.498;18.544;2023-06-10T00:53:18;7.00;;;2.70;;
71204;SDS011;58935;54.498;18.544;2023-06-10T00:55:44;9.80;;;2.70;;
71204;SDS011;58935;54.498;18.544;2023-06-10T00:58:10;7.50;;;2.10;;
71204;SDS011;58935;54.498;18.544;2023-06-10T01:00:36;7.80;;;2.50;;
71204;SDS011;58935;54.498;18.544;2023-06-10T01:03:04;7.50;;;2.60;;
71204;SDS011;58935;54.498;18.544;2023-06-10T01:05:34;8.00;;;2.70;;
71204;SDS011;58935;54.498;18.544;2023-06-10T01:08:19;7.80;;;2.20;;
71204;SDS011;58935;54.498;18.544;2023-06-10T01:10:53;7.60;;;2.50;;
71204;SDS011;58935;54.498;18.544;2023-06-10T01:13:23;6.20;;;2.50;;
71204;SDS011;58935;54.498;18.544;2023-06-10T01:15:55;9.60;;;2.30;;
71204;SDS011;58935;54.498;18.544;2023-06-10T01:18:22;3.50;;;2.00;;
71204;SDS011;58935;54.498;18.544;2023-06-10T01:20:55;8.10;;;2.40;;
71204;SDS011;58935;54.498;18.544;2023-06-10T01:23:22;4.40;;;2.10;;
71204;SDS011;58935;54.498;18.544;2023-06-10T01:25:56;8.50;;;2.00;;
71204;SDS011;58935;54.498;18.544;2023-06-10T01:28:51;8.40;;;2.10;;
71204;SDS011;58935;54.498;18.544;2023-06-10T01:31:31;10.60;;;2.50;;
71204;SDS011;58935;54.498;18.544;2023-06-10T01:34:06;8.30;;;2.60;;
71204;SDS011;58935;54.498;18.544;2023-06-10T01:36:35;12.60;;;2.40;;
71204;SDS011;58935;54.498;18.544;2023-06-10T01:39:04;7.70;;;2.60;;
71204;SDS011;58935;54.498;18.544;2023-06-10T01:41:31;6.10;;;2.30;;
71204;SDS011;58935;54.498;18.544;2023-06-10T01:43:58;8.20;;;1.90;;
71204;SDS011;58935;54.498;18.544;2023-06-10T01:46:23;4.40;;;1.80;;
71204;SDS011;58935;54.498;18.544;2023-06-10T01:48:49;11.90;;;2.00;;
71204;SDS011;58935;54.498;18.544;2023-06-10T01:51:15;6.70;;;1.80;;
71204;SDS011;58935;54.498;18.544;2023-06-10T01:53:43;8.30;;;2.30;;
71204;SDS011;58935;54.498;18.544;2023-06-10T01:56:08;13.40;;;2.20;;
71204;SDS011;58935;54.498;18.544;2023-06-10T01:58:42;9.60;;;2.70;;
71204;SDS011;58935;54.498;18.544;2023-06-10T02:01:08;7.30;;;2.40;;
71204;SDS011;58935;54.498;18.544;2023-06-10T02:03:33;14.90;;;2.10;;
71204;SDS011;58935;54.498;18.544;2023-06-10T02:05:59;8.40;;;2.00;;
71204;SDS011;58935;54.498;18.544;2023-06-10T02:08:24;4.30;;;2.00;;
71204;SDS011;58935;54.498;18.544;2023-06-10T02:10:49;3.50;;;1.50;;
71204;SDS011;58935;54.498;18.544;2023-06-10T02:13:17;4.30;;;1.80;;
71204;SDS011;58935;54.498;18.544;2023-06-10T02:15:43;5.30;;;2.20;;
71204;SDS011;58935;54.498;18.544;2023-06-10T02:18:08;10.40;;;2.10;;
71204;SDS011;58935;54.498;18.544;2023-06-10T02:20:35;5.40;;;1.70;;
71204;SDS011;58935;54.498;18.544;2023-06-10T02:23:01;8.50;;;2.00;;
71204;SDS011;58935;54.498;18.544;2023-06-10T02:25:26;8.20;;;2.60;;
71204;SDS011;58935;54.498;18.544;2023-06-10T02:27:51;8.80;;;1.90;;
71204;SDS011;58935;54.498;18.544;2023-06-10T02:30:17;10.40;;;2.20;;
71204;SDS011;58935;54.498;18.544;2023-06-10T02:32:42;6.00;;;1.80;;
71204;SDS011;58935;54.498;18.544;2023-06-10T02:35:12;7.20;;;2.20;;
71204;SDS011;58935;54.498;18.544;2023-06-10T02:37:38;8.80;;;2.00;;
71204;SDS011;58935;54.498;18.544;2023-06-10T02:40:03;3.10;;;1.70;;
71204;SDS011;58935;54.498;18.544;2023-06-10T02:42:29;5.30;;;1.60;;
71204;SDS011;58935;54.498;18.544;2023-06-10T02:44:55;5.80;;;1.60;;
71204;SDS011;58935;54.498;18.544;2023-06-10T02:47:20;9.90;;;1.80;;
71204;SDS011;58935;54.498;18.544;2023-06-10T02:49:46;7.00;;;1.90;;
71204;SDS011;58935;54.498;18.544;2023-06-10T02:52:11;7.80;;;1.30;;
71204;SDS011;58935;54.498;18.544;2023-06-10T02:54:37;5.10;;;1.70;;
71204;SDS011;58935;54.498;18.544;2023-06-10T02:57:03;3.00;;;1.40;;
71204;SDS011;58935;54.498;18.544;2023-06-10T02:59:29;2.50;;;1.70;;
71204;SDS011;58935;54.498;18.544;2023-06-10T03:01:54;7.70;;;2.00;;
71204;SDS011;58935;54.498;18.544;2023-06-10T03:04:22;2.60;;;1.60;;
71204;SDS011;58935;54.498;18.544;2023-06-10T03:06:48;6.80;;;1.60;;
71204;SDS011;58935;54.498;18.544;2023-06-10T03:09:14;6.00;;;1.90;;
71204;SDS011;58935;54.498;18.544;2023-06-10T03:11:40;6.40;;;1.50;;
71204;SDS011;58935;54.498;18.544;2023-06-10T03:14:05;10.10;;;1.90;;
71204;SDS011;58935;54.498;18.544;2023-06-10T03:16:31;8.90;;;2.70;;
71204;SDS011;58935;54.498;18.544;2023-06-10T03:18:56;4.10;;;1.60;;
71204;SDS011;58935;54.498;18.544;2023-06-10T03:21:22;6.40;;;2.00;;
71204;SDS011;58935;54.498;18.544;2023-06-10T03:23:48;10.40;;;1.70;;
71204;SDS011;58935;54.498;18.544;2023-06-10T03:26:13;4.70;;;1.80;;
71204;SDS011;58935;54.498;18.544;2023-06-10T03:28:40;4.00;;;1.60;;
71204;SDS011;58935;54.498;18.544;2023-06-10T03:31:06;6.90;;;1.90;;
71204;SDS011;58935;54.498;18.544;2023-06-10T03:33:32;5.00;;;1.70;;
71204;SDS011;58935;54.498;18.544;2023-06-10T03:35:58;5.20;;;1.50;;
71204;SDS011;58935;54.498;18.544;2023-06-10T03:38:24;7.80;;;1.70;;
71204;SDS011;58935;54.498;18.544;2023-06-10T03:40:49;7.00;;;1.70;;
71204;SDS011;58935;54.498;18.544;2023-06-10T03:43:15;3.00;;;1.80;;
71204;SDS011;58935;54.498;18.544;2023-06-10T03:45:40;4.30;;;1.40;;
71204;SDS011;58935;54.498;18.544;2023-06-10T03:48:06;1.90;;;1.20;;
71204;SDS011;58935;54.498;18.544;2023-06-10T03:50:34;4.80;;;1.70;;
71204;SDS011;58935;54.498;18.544;2023-06-10T03:53:01;5.10;;;1.50;;
71204;SDS011;58935;54.498;18.544;2023-06-10T03:55:27;6.80;;;1.90;;
71204;SDS011;58935;54.498;18.544;2023-06-10T03:57:53;5.20;;;1.90;;
71204;SDS011;58935;54.498;18.544;2023-06-10T04:00:18;6.20;;;1.90;;
71204;SDS011;58935;54.498;18.544;2023-06-10T04:02:46;4.00;;;1.60;;
71204;SDS011;58935;54.498;18.544;2023-06-10T04:05:12;7.40;;;1.80;;
71204;SDS011;58935;54.498;18.544;2023-06-10T04:07:39;4.50;;;1.70;;
71204;SDS011;58935;54.498;18.544;2023-06-10T04:10:08;6.00;;;1.60;;
71204;SDS011;58935;54.498;18.544;2023-06-10T04:12:35;4.80;;;1.80;;
71204;SDS011;58935;54.498;18.544;2023-06-10T04:15:02;6.20;;;1.50;;
71204;SDS011;58935;54.498;18.544;2023-06-10T04:17:28;3.70;;;1.50;;
71204;SDS011;58935;54.498;18.544;2023-06-10T04:19:54;3.60;;;1.80;;
71204;SDS011;58935;54.498;18.544;2023-06-10T04:22:21;5.50;;;1.60;;
71204;SDS011;58935;54.498;18.544;2023-06-10T04:24:48;4.10;;;1.80;;
71204;SDS011;58935;54.498;18.544;2023-06-10T04:27:13;5.70;;;2.00;;
71204;SDS011;58935;54.498;18.544;2023-06-10T04:29:39;10.30;;;2.00;;
71204;SDS011;58935;54.498;18.544;2023-06-10T04:32:06;5.80;;;1.60;;
71204;SDS011;58935;54.498;18.544;2023-06-10T04:34:33;5.60;;;1.80;;
71204;SDS011;58935;54.498;18.544;2023-06-10T04:37:00;7.30;;;1.70;;
71204;SDS011;58935;54.498;18.544;2023-06-10T04:39:25;9.70;;;1.90;;
71204;SDS011;58935;54.498;18.544;2023-06-10T04:41:51;6.50;;;1.90;;
71204;SDS011;58935;54.498;18.544;2023-06-10T04:44:17;6.00;;;1.70;;
71204;SDS011;58935;54.498;18.544;2023-06-10T04:46:45;9.40;;;1.70;;
71204;SDS011;58935;54.498;18.544;2023-06-10T04:49:13;4.20;;;1.90;;
71204;SDS011;58935;54.498;18.544;2023-06-10T04:51:41;3.80;;;1.80;;
71204;SDS011;58935;54.498;18.544;2023-06-10T04:54:07;7.20;;;1.80;;
71204;SDS011;58935;54.498;18.544;2023-06-10T04:56:34;2.30;;;1.80;;
71204;SDS011;58935;54.498;18.544;2023-06-10T04:59:00;2.00;;;1.70;;
71204;SDS011;58935;54.498;18.544;2023-06-10T05:01:34;7.60;;;1.80;;
71204;SDS011;58935;54.498;18.544;2023-06-10T05:04:02;5.60;;;1.90;;
71204;SDS011;58935;54.498;18.544;2023-06-10T05:06:31;6.40;;;2.70;;
71204;SDS011;58935;54.498;18.544;2023-06-10T05:08:57;5.50;;;1.80;;
71204;SDS011;58935;54.498;18.544;2023-06-10T05:11:22;9.50;;;2.10;;
71204;SDS011;58935;54.498;18.544;2023-06-10T05:13:48;5.70;;;2.00;;
71204;SDS011;58935;54.498;18.544;2023-06-10T05:16:14;6.00;;;1.80;;
71204;SDS011;58935;54.498;18.544;2023-06-10T05:18:40;6.40;;;2.00;;
71204;SDS011;58935;54.498;18.544;2023-06-10T05:21:06;8.70;;;1.80;;
71204;SDS011;58935;54.498;18.544;2023-06-10T05:23:32;4.40;;;2.10;;
71204;SDS011;58935;54.498;18.544;2023-06-10T05:25:58;4.50;;;1.90;;
71204;SDS011;58935;54.498;18.544;2023-06-10T05:28:25;5.00;;;1.70;;
71204;SDS011;58935;54.498;18.544;2023-06-10T05:30:51;3.20;;;1.80;;
71204;SDS011;58935;54.498;18.544;2023-06-10T05:33:19;7.40;;;2.00;;
71204;SDS011;58935;54.498;18.544;2023-06-10T05:35:44;10.10;;;2.30;;
71204;SDS011;58935;54.498;18.544;2023-06-10T05:38:10;8.70;;;2.00;;
71204;SDS011;58935;54.498;18.544;2023-06-10T05:40:36;7.80;;;1.90;;
71204;SDS011;58935;54.498;18.544;2023-06-10T05:43:01;5.40;;;2.10;;
71204;SDS011;58935;54.498;18.544;2023-06-10T05:45:27;8.70;;;1.90;;
71204;SDS011;58935;54.498;18.544;2023-06-10T05:47:53;3.50;;;1.70;;
71204;SDS011;58935;54.498;18.544;2023-06-10T05:50:18;6.30;;;1.70;;
71204;SDS011;58935;54.498;18.544;2023-06-10T05:52:43;7.30;;;2.00;;
71204;SDS011;58935;54.498;18.544;2023-06-10T05:55:09;5.20;;;1.40;;
71204;SDS011;58935;54.498;18.544;2023-06-10T05:57:35;3.70;;;1.70;;
71204;SDS011;58935;54.498;18.544;2023-06-10T06:00:01;3.50;;;1.70;;
71204;SDS011;58935;54.498;18.544;2023-06-10T06:02:26;6.50;;;1.90;;
71204;SDS011;58935;54.498;18.544;2023-06-10T06:04:54;6.60;;;1.80;;
71204;SDS011;58935;54.498;18.544;2023-06-10T06:07:20;5.80;;;1.70;;
71204;SDS011;58935;54.498;18.544;2023-06-10T06:09:46;4.90;;;1.60;;
71204;SDS011;58935;54.498;18.544;2023-06-10T06:12:12;9.50;;;1.70;;
71204;SDS011;58935;54.498;18.544;2023-06-10T06:14:40;4.60;;;1.90;;
71204;SDS011;58935;54.498;18.544;2023-06-10T06:17:06;7.50;;;1.70;;
71204;SDS011;58935;54.498;18.544;2023-06-10T06:19:32;6.20;;;2.00;;
71204;SDS011;58935;54.498;18.544;2023-06-10T06:21:57;2.50;;;1.70;;
71204;SDS011;58935;54.498;18.544;2023-06-10T06:24:23;5.90;;;1.60;;
71204;SDS011;58935;54.498;18.544;2023-06-10T06:26:48;7.60;;;2.00;;
71204;SDS011;58935;54.498;18.544;2023-06-10T06:29:14;10.10;;;2.00;;
71204;SDS011;58935;54.498;18.544;2023-06-10T06:31:40;9.50;;;1.50;;
71204;SDS011;58935;54.498;18.544;2023-06-10T06:34:05;4.70;;;1.40;;
71204;SDS011;58935;54.498;18.544;2023-06-10T06:36:31;4.50;;;1.20;;
71204;SDS011;58935;54.498;18.544;2023-06-10T06:38:56;2.30;;;1.60;;
71204;SDS011;58935;54.498;18.544;2023-06-10T06:41:25;5.20;;;1.50;;
71204;SDS011;58935;54.498;18.544;2023-06-10T06:43:55;3.40;;;1.20;;
71204;SDS011;58935;54.498;18.544;2023-06-10T06:46:20;3.20;;;1.40;;
71204;SDS011;58935;54.498;18.544;2023-06-10T06:48:47;3.20;;;1.40;;
71204;SDS011;58935;54.498;18.544;2023-06-10T06:51:14;5.50;;;1.20;;
71204;SDS011;58935;54.498;18.544;2023-06-10T06:53:40;4.20;;;1.60;;
71204;SDS011;58935;54.498;18.544;2023-06-10T06:56:11;6.50;;;1.70;;
71204;SDS011;58935;54.498;18.544;2023-06-10T06:58:37;6.90;;;1.60;;
71204;SDS011;58935;54.498;18.544;2023-06-10T07:01:03;4.80;;;1.20;;
71204;SDS011;58935;54.498;18.544;2023-06-10T07:03:28;4.60;;;1.70;;
71204;SDS011;58935;54.498;18.544;2023-06-10T07:05:53;4.70;;;1.30;;
71204;SDS011;58935;54.498;18.544;2023-06-10T07:08:19;8.40;;;1.20;;
71204;SDS011;58935;54.498;18.544;2023-06-10T07:10:44;5.00;;;1.50;;
71204;SDS011;58935;54.498;18.544;2023-06-10T07:13:10;7.00;;;1.70;;
71204;SDS011;58935;54.498;18.544;2023-06-10T07:15:35;2.70;;;1.20;;
71204;SDS011;58935;54.498;18.544;2023-06-10T07:18:03;9.20;;;1.80;;
71204;SDS011;58935;54.498;18.544;2023-06-10T07:20:29;5.50;;;1.40;;
71204;SDS011;58935;54.498;18.544;2023-06-10T07:22:54;2.80;;;1.40;;
71204;SDS011;58935;54.498;18.544;2023-06-10T07:25:20;2.10;;;1.20;;
71204;SDS011;58935;54.498;18.544;2023-06-10T07:27:49;2.40;;;1.20;;
71204;SDS011;58935;54.498;18.544;2023-06-10T07:30:15;3.40;;;1.50;;
71204;SDS011;58935;54.498;18.544;2023-06-10T07:32:40;5.00;;;1.60;;
71204;SDS011;58935;54.498;18.544;2023-06-10T07:35:08;5.30;;;1.20;;
71204;SDS011;58935;54.498;18.544;2023-06-10T07:37:36;3.70;;;1.30;;
71204;SDS011;58935;54.498;18.544;2023-06-10T07:40:03;4.60;;;1.10;;
71204;SDS011;58935;54.498;18.544;2023-06-10T07:42:29;3.10;;;1.30;;
71204;SDS011;58935;54.498;18.544;2023-06-10T07:44:54;2.20;;;1.00;;
71204;SDS011;58935;54.498;18.544;2023-06-10T07:47:20;4.00;;;1.40;;
71204;SDS011;58935;54.498;18.544;2023-06-10T07:49:48;3.30;;;1.20;;
71204;SDS011;58935;54.498;18.544;2023-06-10T07:52:13;8.60;;;1.60;;
71204;SDS011;58935;54.498;18.544;2023-06-10T07:54:39;5.30;;;1.20;;
71204;SDS011;58935;54.498;18.544;2023-06-10T07:57:07;1.90;;;1.10;;
71204;SDS011;58935;54.498;18.544;2023-06-10T07:59:33;8.60;;;1.50;;
71204;SDS011;58935;54.498;18.544;2023-06-10T08:01:59;2.60;;;1.00;;
71204;SDS011;58935;54.498;18.544;2023-06-10T08:04:24;3.10;;;1.00;;
71204;SDS011;58935;54.498;18.544;2023-06-10T08:06:50;8.20;;;1.40;;
71204;SDS011;58935;54.498;18.544;2023-06-10T08:09:16;5.90;;;1.80;;
71204;SDS011;58935;54.498;18.544;2023-06-10T08:11:41;7.20;;;1.40;;
71204;SDS011;58935;54.498;18.544;2023-06-10T08:14:07;5.90;;;1.00;;
71204;SDS011;58935;54.498;18.544;2023-06-10T08:16:32;4.20;;;1.40;;
71204;SDS011;58935;54.498;18.544;2023-06-10T08:18:58;5.30;;;1.30;;
71204;SDS011;58935;54.498;18.544;2023-06-10T08:21:23;5.00;;;1.30;;
71204;SDS011;58935;54.498;18.544;2023-06-10T08:23:52;4.60;;;1.30;;
71204;SDS011;58935;54.498;18.544;2023-06-10T08:26:19;1.90;;;1.30;;
71204;SDS011;58935;54.498;18.544;2023-06-10T08:28:45;4.30;;;1.50;;
71204;SDS011;58935;54.498;18.544;2023-06-10T08:31:10;10.00;;;1.50;;
71204;SDS011;58935;54.498;18.544;2023-06-10T08:33:36;3.40;;;1.40;;
71204;SDS011;58935;54.498;18.544;2023-06-10T08:36:02;3.80;;;1.50;;
71204;SDS011;58935;54.498;18.544;2023-06-10T08:38:27;14.80;;;1.70;;
71204;SDS011;58935;54.498;18.544;2023-06-10T08:40:56;4.50;;;1.40;;
71204;SDS011;58935;54.498;18.544;2023-06-10T08:43:32;6.50;;;1.60;;
71204;SDS011;58935;54.498;18.544;2023-06-10T08:46:02;3.30;;;1.30;;
71204;SDS011;58935;54.498;18.544;2023-06-10T08:48:29;2.40;;;1.50;;
71204;SDS011;58935;54.498;18.544;2023-06-10T08:51:00;10.90;;;1.50;;
71204;SDS011;58935;54.498;18.544;2023-06-10T08:53:31;7.40;;;1.50;;
71204;SDS011;58935;54.498;18.544;2023-06-10T08:56:03;3.50;;;2.00;;
71204;SDS011;58935;54.498;18.544;2023-06-10T08:58:33;6.80;;;2.30;;
71204;SDS011;58935;54.498;18.544;2023-06-10T09:01:00;7.10;;;2.00;;
71204;SDS011;58935;54.498;18.544;2023-06-10T09:03:27;7.80;;;2.10;;
71204;SDS011;58935;54.498;18.544;2023-06-10T09:05:54;5.20;;;1.50;;
71204;SDS011;58935;54.498;18.544;2023-06-10T09:08:22;3.90;;;1.40;;
71204;SDS011;58935;54.498;18.544;2023-06-10T09:10:48;5.90;;;1.40;;
71204;SDS011;58935;54.498;18.544;2023-06-10T09:13:13;4.00;;;1.30;;
71204;SDS011;58935;54.498;18.544;2023-06-10T09:15:41;5.90;;;1.60;;
71204;SDS011;58935;54.498;18.544;2023-06-10T09:18:09;4.20;;;1.60;;
71204;SDS011;58935;54.498;18.544;2023-06-10T09:20:35;4.90;;;1.60;;
71204;SDS011;58935;54.498;18.544;2023-06-10T09:23:01;9.20;;;1.60;;
71204;SDS011;58935;54.498;18.544;2023-06-10T09:28:00;1.80;;;1.30;;
71204;SDS011;58935;54.498;18.544;2023-06-10T09:30:27;5.20;;;1.40;;
71204;SDS011;58935;54.498;18.544;2023-06-10T09:32:57;7.10;;;1.50;;
71204;SDS011;58935;54.498;18.544;2023-06-10T09:35:29;3.10;;;1.40;;
71204;SDS011;58935;54.498;18.544;2023-06-10T09:37:58;4.80;;;1.20;;
71204;SDS011;58935;54.498;18.544;2023-06-10T09:40:25;2.80;;;1.30;;
71204;SDS011;58935;54.498;18.544;2023-06-10T09:42:54;1.90;;;1.20;;
71204;SDS011;58935;54.498;18.544;2023-06-10T09:45:22;3.40;;;1.30;;
71204;SDS011;58935;54.498;18.544;2023-06-10T09:47:52;7.20;;;1.40;;
71204;SDS011;58935;54.498;18.544;2023-06-10T09:50:18;3.50;;;1.30;;
71204;SDS011;58935;54.498;18.544;2023-06-10T09:52:46;3.50;;;1.50;;
71204;SDS011;58935;54.498;18.544;2023-06-10T09:55:13;5.30;;;1.50;;
71204;SDS011;58935;54.498;18.544;2023-06-10T09:57:39;3.50;;;1.40;;
71204;SDS011;58935;54.498;18.544;2023-06-10T10:00:08;2.50;;;1.50;;
71204;SDS011;58935;54.498;18.544;2023-06-10T10:05:09;3.10;;;1.50;;
71204;SDS011;58935;54.498;18.544;2023-06-10T10:07:35;4.10;;;1.50;;
71204;SDS011;58935;54.498;18.544;2023-06-10T10:10:00;2.70;;;1.30;;
71204;SDS011;58935;54.498;18.544;2023-06-10T10:12:27;2.80;;;1.50;;
71204;SDS011;58935;54.498;18.544;2023-06-10T10:14:55;4.50;;;1.40;;
71204;SDS011;58935;54.498;18.544;2023-06-10T10:17:23;4.10;;;1.60;;
71204;SDS011;58935;54.498;18.544;2023-06-10T10:19:53;1.90;;;1.00;;
71204;SDS011;58935;54.498;18.544;2023-06-10T10:22:26;4.40;;;1.70;;
71204;SDS011;58935;54.498;18.544;2023-06-10T10:24:59;7.20;;;1.70;;
71204;SDS011;58935;54.498;18.544;2023-06-10T10:27:33;1.90;;;1.20;;
71204;SDS011;58935;54.498;18.544;2023-06-10T10:30:02;4.30;;;1.60;;
71204;SDS011;58935;54.498;18.544;2023-06-10T10:32:38;8.90;;;1.60;;
71204;SDS011;58935;54.498;18.544;2023-06-10T10:35:13;4.60;;;1.50;;
71204;SDS011;58935;54.498;18.544;2023-06-10T10:37:43;2.30;;;1.30;;
71204;SDS011;58935;54.498;18.544;2023-06-10T10:40:10;3.70;;;1.40;;
71204;SDS011;58935;54.498;18.544;2023-06-10T10:42:37;3.80;;;1.70;;
71204;SDS011;58935;54.498;18.544;2023-06-10T10:45:06;2.60;;;1.10;;
71204;SDS011;58935;54.498;18.544;2023-06-10T10:47:34;8.30;;;1.20;;
71204;SDS011;58935;54.498;18.544;2023-06-10T10:50:13;6.30;;;1.70;;
71204;SDS011;58935;54.498;18.544;2023-06-10T10:52:51;2.20;;;1.50;;
71204;SDS011;58935;54.498;18.544;2023-06-10T10:55:24;2.40;;;1.20;;
71204;SDS011;58935;54.498;18.544;2023-06-10T10:57:54;1.10;;;1.00;;
71204;SDS011;58935;54.498;18.544;2023-06-10T11:00:30;2.30;;;1.40;;
71204;SDS011;58935;54.498;18.544;2023-06-10T11:03:06;3.50;;;1.40;;
71204;SDS011;58935;54.498;18.544;2023-06-10T11:05:36;4.40;;;1.40;;
71204;SDS011;58935;54.498;18.544;2023-06-10T11:08:04;4.00;;;1.50;;
71204;SDS011;58935;54.498;18.544;2023-06-10T11:10:34;3.50;;;1.70;;
71204;SDS011;58935;54.498;18.544;2023-06-10T11:15:43;3.10;;;1.30;;
71204;SDS011;58935;54.498;18.544;2023-06-10T11:18:19;4.90;;;1.50;;
71204;SDS011;58935;54.498;18.544;2023-06-10T11:20:54;6.30;;;1.50;;
71204;SDS011;58935;54.498;18.544;2023-06-10T11:29:01;4.70;;;1.50;;
71204;SDS011;58935;54.498;18.544;2023-06-10T11:31:32;2.80;;;1.40;;
71204;SDS011;58935;54.498;18.544;2023-06-10T11:34:08;1.90;;;1.10;;
71204;SDS011;58935;54.498;18.544;2023-06-10T11:36:38;3.60;;;1.40;;
71204;SDS011;58935;54.498;18.544;2023-06-10T11:39:06;3.60;;;1.50;;
71204;SDS011;58935;54.498;18.544;2023-06-10T11:41:34;7.10;;;1.50;;
71204;SDS011;58935;54.498;18.544;2023-06-10T11:44:07;6.40;;;1.40;;
71204;SDS011;58935;54.498;18.544;2023-06-10T11:46:34;3.70;;;1.20;;
71204;SDS011;58935;54.498;18.544;2023-06-10T11:49:01;1.70;;;1.40;;
71204;SDS011;58935;54.498;18.544;2023-06-10T11:51:31;5.00;;;1.30;;
71204;SDS011;58935;54.498;18.544;2023-06-10T11:53:58;2.10;;;1.20;;
71204;SDS011;58935;54.498;18.544;2023-06-10T11:56:26;5.20;;;1.40;;
71204;SDS011;58935;54.498;18.544;2023-06-10T11:58:56;3.20;;;1.30;;
71204;SDS011;58935;54.498;18.544;2023-06-10T12:01:25;2.00;;;1.20;;
71204;SDS011;58935;54.498;18.544;2023-06-10T12:03:56;4.60;;;1.20;;
71204;SDS011;58935;54.498;18.544;2023-06-10T12:06:26;3.20;;;1.50;;
71204;SDS011;58935;54.498;18.544;2023-06-10T12:08:53;3.50;;;1.10;;
71204;SDS011;58935;54.498;18.544;2023-06-10T12:11:20;3.80;;;1.20;;
71204;SDS011;58935;54.498;18.544;2023-06-10T12:13:48;3.00;;;1.60;;
71204;SDS011;58935;54.498;18.544;2023-06-10T12:16:15;4.20;;;1.40;;
71204;SDS011;58935;54.498;18.544;2023-06-10T12:18:43;5.80;;;1.40;;
71204;SDS011;58935;54.498;18.544;2023-06-10T12:21:15;4.60;;;1.30;;
71204;SDS011;58935;54.498;18.544;2023-06-10T12:24:08;3.30;;;1.80;;
71204;SDS011;58935;54.498;18.544;2023-06-10T12:26:36;4.00;;;1.60;;
71204;SDS011;58935;54.498;18.544;2023-06-10T12:34:32;3.90;;;1.40;;
71204;SDS011;58935;54.498;18.544;2023-06-10T12:37:01;2.60;;;1.90;;
71204;SDS011;58935;54.498;18.544;2023-06-10T12:39:29;2.60;;;1.20;;
71204;SDS011;58935;54.498;18.544;2023-06-10T12:41:57;3.70;;;1.60;;
71204;SDS011;58935;54.498;18.544;2023-06-10T12:44:28;10.50;;;1.80;;
71204;SDS011;58935;54.498;18.544;2023-06-10T12:47:00;4.80;;;1.50;;
71204;SDS011;58935;54.498;18.544;2023-06-10T12:49:26;4.70;;;1.50;;
71204;SDS011;58935;54.498;18.544;2023-06-10T12:51:52;5.00;;;1.50;;
71204;SDS011;58935;54.498;18.544;2023-06-10T12:54:21;5.30;;;1.40;;
71204;SDS011;58935;54.498;18.544;2023-06-10T12:56:47;4.20;;;1.60;;
71204;SDS011;58935;54.498;18.544;2023-06-10T12:59:12;3.60;;;1.50;;
71204;SDS011;58935;54.498;18.544;2023-06-10T13:01:38;4.10;;;1.70;;
71204;SDS011;58935;54.498;18.544;2023-06-10T13:04:05;4.90;;;1.40;;
71204;SDS011;58935;54.498;18.544;2023-06-10T13:06:33;3.60;;;1.50;;
71204;SDS011;58935;54.498;18.544;2023-06-10T13:09:02;3.70;;;1.20;;
71204;SDS011;58935;54.498;18.544;2023-06-10T13:11:28;4.20;;;1.30;;
71204;SDS011;58935;54.498;18.544;2023-06-10T13:13:54;7.30;;;1.60;;
71204;SDS011;58935;54.498;18.544;2023-06-10T13:16:19;2.50;;;1.20;;
71204;SDS011;58935;54.498;18.544;2023-06-10T13:18:45;6.10;;;1.50;;
71204;SDS011;58935;54.498;18.544;2023-06-10T13:21:11;3.70;;;1.50;;
71204;SDS011;58935;54.498;18.544;2023-06-10T13:23:36;9.70;;;1.40;;
71204;SDS011;58935;54.498;18.544;2023-06-10T13:26:02;7.90;;;2.30;;
71204;SDS011;58935;54.498;18.544;2023-06-10T13:28:28;4.10;;;1.30;;
71204;SDS011;58935;54.498;18.544;2023-06-10T13:30:53;3.10;;;1.40;;
71204;SDS011;58935;54.498;18.544;2023-06-10T13:33:19;7.10;;;1.40;;
71204;SDS011;58935;54.498;18.544;2023-06-10T13:35:44;2.40;;;1.30;;
71204;SDS011;58935;54.498;18.544;2023-06-10T13:38:10;2.40;;;1.40;;
71204;SDS011;58935;54.498;18.544;2023-06-10T13:40:57;4.00;;;1.60;;
71204;SDS011;58935;54.498;18.544;2023-06-10T13:43:23;5.70;;;1.50;;
71204;SDS011;58935;54.498;18.544;2023-06-10T13:45:48;5.40;;;1.40;;
71204;SDS011;58935;54.498;18.544;2023-06-10T13:48:14;8.30;;;1.70;;
71204;SDS011;58935;54.498;18.544;2023-06-10T13:50:39;6.20;;;1.80;;
71204;SDS011;58935;54.498;18.544;2023-06-10T13:53:05;1.70;;;1.30;;
71204;SDS011;58935;54.498;18.544;2023-06-10T13:55:32;5.80;;;1.40;;
71204;SDS011;58935;54.498;18.544;2023-06-10T13:57:58;7.50;;;1.80;;
71204;SDS011;58935;54.498;18.544;2023-06-10T14:00:23;4.90;;;1.80;;
71204;SDS011;58935;54.498;18.544;2023-06-10T14:02:51;4.90;;;1.50;;
71204;SDS011;58935;54.498;18.544;2023-06-10T14:05:16;5.20;;;1.30;;
71204;SDS011;58935;54.498;18.544;2023-06-10T14:07:41;8.70;;;1.40;;
71204;SDS011;58935;54.498;18.544;2023-06-10T14:10:07;5.70;;;1.40;;
71204;SDS011;58935;54.498;18.544;2023-06-10T14:12:34;3.40;;;1.20;;
71204;SDS011;58935;54.498;18.544;2023-06-10T14:15:00;7.00;;;1.30;;
71204;SDS011;58935;54.498;18.544;2023-06-10T14:17:26;6.20;;;1.70;;
71204;SDS011;58935;54.498;18.544;2023-06-10T14:19:51;5.90;;;1.70;;
71204;SDS011;58935;54.498;18.544;2023-06-10T14:22:17;5.70;;;1.30;;
71204;SDS011;58935;54.498;18.544;2023-06-10T14:24:42;2.60;;;1.40;;
71204;SDS011;58935;54.498;18.544;2023-06-10T14:27:08;3.30;;;1.30;;
71204;SDS011;58935;54.498;18.544;2023-06-10T14:29:33;2.30;;;1.20;;
71204;SDS011;58935;54.498;18.544;2023-06-10T14:31:59;4.10;;;1.50;;
71204;SDS011;58935;54.498;18.544;2023-06-10T14:34:25;10.10;;;1.60;;
71204;SDS011;58935;54.498;18.544;2023-06-10T14:36:54;1.70;;;1.30;;
71204;SDS011;58935;54.498;18.544;2023-06-10T14:39:20;3.40;;;1.70;;
71204;SDS011;58935;54.498;18.544;2023-06-10T14:41:45;4.80;;;1.70;;
71204;SDS011;58935;54.498;18.544;2023-06-10T14:44:11;3.10;;;1.30;;
71204;SDS011;58935;54.498;18.544;2023-06-10T14:46:36;3.10;;;1.30;;
71204;SDS011;58935;54.498;18.544;2023-06-10T14:49:02;2.00;;;1.40;;
71204;SDS011;58935;54.498;18.544;2023-06-10T14:51:28;3.10;;;1.40;;
71204;SDS011;58935;54.498;18.544;2023-06-10T14:53:53;8.30;;;1.40;;